メインページ
METAR-TAF:

METAR-TAF

空港 :

モントリオール・トルドー, ケベック州, カナダ

モントリオール・ピエール・エリオット・トルドー国際空港

緯度: 45-28N, 経度: 073-45W, 海抜: 31m

現時点の気象観測

当レポートは20分前の23:00(UTC)に作成
南/南西の風 7kt
気温 21°C
湿度 49%
気圧 1011 hPa
視程: 48.3km
高度5000ftの雲はほとんどない
高度17000ftの千切れ雲あり

METAR: CYUL 272300Z 20007KT 30SM FEW050 BKN170 21/10 A2984 RMK CU1AC6 CU TR SLP106 DENSITY ALT 900FT

時間: 19:20 (23:20 UTC)

予報

当レポートは2時間41分前の20:39(UTC)に作成
予報は27日の 21時(UTC)から 28日の 18時(UTC)まで有効
の風 8kt
視程: 10km
高度5000ftの雲はほとんどない
高度14000ftの雲は散在している
27日の 23時(UTC)から 28日の 01時(UTC)まで徐々に
西/南西の風 8kt

TAF: CYUL 272039Z 2721/2818 19008KT P6SM FEW050 SCT140 BECMG 2723/2801 24008KT RMK NXT FCST BY 280000Z

4,000以上の空港の気象観測と天気予報(METAR報とTAF報)

利用可能な観測所は地図上に黄色い丸と赤い丸で示す。

丸の上にカーソルを重ねると観測所名を参照できる。

次にクリックすると気象観測と天気予報を参照できる。

マップの切り替え:黒色「×」印の緑ボタンをクリックして拡大、「-」印の緑ボタンをクリックして縮小、緑色の三角印をクリックして隣りの地図に切り替え


METAR-TAF: